sensor_id;sensor_type;location;lat;lon;timestamp;P1;durP1;ratioP1;P2;durP2;ratioP2
53977;SDS011;39886;47.984;-1.586;2024-01-15T00:01:50;4.38;;;3.95;;
53977;SDS011;39886;47.984;-1.586;2024-01-15T00:04:16;5.47;;;4.30;;
53977;SDS011;39886;47.984;-1.586;2024-01-15T00:06:41;4.75;;;4.25;;
53977;SDS011;39886;47.984;-1.586;2024-01-15T00:09:07;5.22;;;4.47;;
53977;SDS011;39886;47.984;-1.586;2024-01-15T00:11:33;4.72;;;4.22;;
53977;SDS011;39886;47.984;-1.586;2024-01-15T00:13:59;4.93;;;4.13;;
53977;SDS011;39886;47.984;-1.586;2024-01-15T00:16:24;4.90;;;4.30;;
53977;SDS011;39886;47.984;-1.586;2024-01-15T00:18:50;4.75;;;4.25;;
53977;SDS011;39886;47.984;-1.586;2024-01-15T00:21:16;5.75;;;4.80;;
53977;SDS011;39886;47.984;-1.586;2024-01-15T00:23:44;5.05;;;4.50;;
53977;SDS011;39886;47.984;-1.586;2024-01-15T00:26:10;5.63;;;4.75;;
53977;SDS011;39886;47.984;-1.586;2024-01-15T00:28:36;6.63;;;4.80;;
53977;SDS011;39886;47.984;-1.586;2024-01-15T00:31:03;4.97;;;4.40;;
53977;SDS011;39886;47.984;-1.586;2024-01-15T00:33:31;4.80;;;4.20;;
53977;SDS011;39886;47.984;-1.586;2024-01-15T00:35:57;5.53;;;4.47;;
53977;SDS011;39886;47.984;-1.586;2024-01-15T00:38:23;5.10;;;4.60;;
53977;SDS011;39886;47.984;-1.586;2024-01-15T00:40:50;5.38;;;4.65;;
53977;SDS011;39886;47.984;-1.586;2024-01-15T00:43:15;5.85;;;4.57;;
53977;SDS011;39886;47.984;-1.586;2024-01-15T00:45:43;5.00;;;4.50;;
53977;SDS011;39886;47.984;-1.586;2024-01-15T00:48:09;5.70;;;4.60;;
53977;SDS011;39886;47.984;-1.586;2024-01-15T00:50:34;5.10;;;4.43;;
53977;SDS011;39886;47.984;-1.586;2024-01-15T00:53:00;5.38;;;4.70;;
53977;SDS011;39886;47.984;-1.586;2024-01-15T00:55:27;5.90;;;4.70;;
53977;SDS011;39886;47.984;-1.586;2024-01-15T00:57:53;5.07;;;4.53;;
53977;SDS011;39886;47.984;-1.586;2024-01-15T01:00:19;5.15;;;4.38;;
53977;SDS011;39886;47.984;-1.586;2024-01-15T01:02:45;5.13;;;4.63;;
53977;SDS011;39886;47.984;-1.586;2024-01-15T01:05:11;5.40;;;4.72;;
53977;SDS011;39886;47.984;-1.586;2024-01-15T01:07:36;5.18;;;4.68;;
53977;SDS011;39886;47.984;-1.586;2024-01-15T01:10:02;5.18;;;4.53;;
53977;SDS011;39886;47.984;-1.586;2024-01-15T01:12:28;4.88;;;4.38;;
53977;SDS011;39886;47.984;-1.586;2024-01-15T01:14:55;5.80;;;5.05;;
53977;SDS011;39886;47.984;-1.586;2024-01-15T01:17:21;5.50;;;4.80;;
53977;SDS011;39886;47.984;-1.586;2024-01-15T01:19:47;5.10;;;4.40;;
53977;SDS011;39886;47.984;-1.586;2024-01-15T01:22:12;5.53;;;4.55;;
53977;SDS011;39886;47.984;-1.586;2024-01-15T01:24:38;4.95;;;4.45;;
53977;SDS011;39886;47.984;-1.586;2024-01-15T01:27:04;4.70;;;4.30;;
53977;SDS011;39886;47.984;-1.586;2024-01-15T01:29:29;4.95;;;4.45;;
53977;SDS011;39886;47.984;-1.586;2024-01-15T01:31:55;5.50;;;4.57;;
53977;SDS011;39886;47.984;-1.586;2024-01-15T01:34:21;5.88;;;4.90;;
53977;SDS011;39886;47.984;-1.586;2024-01-15T01:36:47;4.75;;;4.25;;
53977;SDS011;39886;47.984;-1.586;2024-01-15T01:39:13;5.30;;;4.57;;
53977;SDS011;39886;47.984;-1.586;2024-01-15T01:41:39;4.97;;;4.47;;
53977;SDS011;39886;47.984;-1.586;2024-01-15T01:44:05;4.97;;;4.22;;
53977;SDS011;39886;47.984;-1.586;2024-01-15T01:46:32;5.40;;;4.47;;
53977;SDS011;39886;47.984;-1.586;2024-01-15T01:48:58;5.20;;;4.57;;
53977;SDS011;39886;47.984;-1.586;2024-01-15T01:51:30;5.72;;;4.90;;
53977;SDS011;39886;47.984;-1.586;2024-01-15T01:53:56;5.53;;;4.63;;
53977;SDS011;39886;47.984;-1.586;2024-01-15T01:56:22;5.07;;;4.07;;
53977;SDS011;39886;47.984;-1.586;2024-01-15T01:58:48;5.07;;;4.30;;
53977;SDS011;39886;47.984;-1.586;2024-01-15T02:01:14;5.00;;;4.47;;
53977;SDS011;39886;47.984;-1.586;2024-01-15T02:03:40;4.82;;;4.30;;
53977;SDS011;39886;47.984;-1.586;2024-01-15T02:06:06;4.50;;;3.95;;
53977;SDS011;39886;47.984;-1.586;2024-01-15T02:08:33;4.35;;;3.95;;
53977;SDS011;39886;47.984;-1.586;2024-01-15T02:10:59;5.10;;;4.60;;
53977;SDS011;39886;47.984;-1.586;2024-01-15T02:13:25;4.80;;;4.30;;
53977;SDS011;39886;47.984;-1.586;2024-01-15T02:15:51;4.78;;;4.22;;
53977;SDS011;39886;47.984;-1.586;2024-01-15T02:18:17;5.15;;;4.43;;
53977;SDS011;39886;47.984;-1.586;2024-01-15T02:20:42;4.70;;;4.10;;
53977;SDS011;39886;47.984;-1.586;2024-01-15T02:23:13;4.88;;;4.20;;
53977;SDS011;39886;47.984;-1.586;2024-01-15T02:25:43;6.13;;;4.57;;
53977;SDS011;39886;47.984;-1.586;2024-01-15T02:28:15;5.40;;;4.57;;
53977;SDS011;39886;47.984;-1.586;2024-01-15T02:30:42;5.10;;;4.53;;
53977;SDS011;39886;47.984;-1.586;2024-01-15T02:33:09;5.57;;;4.80;;
53977;SDS011;39886;47.984;-1.586;2024-01-15T02:35:35;4.97;;;4.47;;
53977;SDS011;39886;47.984;-1.586;2024-01-15T02:38:02;5.00;;;4.28;;
53977;SDS011;39886;47.984;-1.586;2024-01-15T02:40:28;4.53;;;4.10;;
53977;SDS011;39886;47.984;-1.586;2024-01-15T02:42:54;5.43;;;4.32;;
53977;SDS011;39886;47.984;-1.586;2024-01-15T02:45:20;4.45;;;3.92;;
53977;SDS011;39886;47.984;-1.586;2024-01-15T02:47:46;5.90;;;4.65;;
53977;SDS011;39886;47.984;-1.586;2024-01-15T02:50:12;4.85;;;4.28;;
53977;SDS011;39886;47.984;-1.586;2024-01-15T02:52:38;5.30;;;4.10;;
53977;SDS011;39886;47.984;-1.586;2024-01-15T02:55:04;5.60;;;4.60;;
53977;SDS011;39886;47.984;-1.586;2024-01-15T02:57:30;4.93;;;3.95;;
53977;SDS011;39886;47.984;-1.586;2024-01-15T02:59:56;5.32;;;4.20;;
53977;SDS011;39886;47.984;-1.586;2024-01-15T03:02:22;5.03;;;4.53;;
53977;SDS011;39886;47.984;-1.586;2024-01-15T03:04:48;4.82;;;4.03;;
53977;SDS011;39886;47.984;-1.586;2024-01-15T03:07:13;5.25;;;4.40;;
53977;SDS011;39886;47.984;-1.586;2024-01-15T03:09:39;5.00;;;4.22;;
53977;SDS011;39886;47.984;-1.586;2024-01-15T03:12:05;4.72;;;4.13;;
53977;SDS011;39886;47.984;-1.586;2024-01-15T03:14:31;4.53;;;3.97;;
53977;SDS011;39886;47.984;-1.586;2024-01-15T03:16:57;4.57;;;4.05;;
53977;SDS011;39886;47.984;-1.586;2024-01-15T03:19:22;5.05;;;4.22;;
53977;SDS011;39886;47.984;-1.586;2024-01-15T03:21:48;4.50;;;4.00;;
53977;SDS011;39886;47.984;-1.586;2024-01-15T03:24:14;4.82;;;4.32;;
53977;SDS011;39886;47.984;-1.586;2024-01-15T03:26:39;4.20;;;3.80;;
53977;SDS011;39886;47.984;-1.586;2024-01-15T03:29:05;4.72;;;4.03;;
53977;SDS011;39886;47.984;-1.586;2024-01-15T03:31:32;5.35;;;4.40;;
53977;SDS011;39886;47.984;-1.586;2024-01-15T03:33:58;4.25;;;3.85;;
53977;SDS011;39886;47.984;-1.586;2024-01-15T03:36:23;4.20;;;3.80;;
53977;SDS011;39886;47.984;-1.586;2024-01-15T03:38:49;4.82;;;4.10;;
53977;SDS011;39886;47.984;-1.586;2024-01-15T03:41:15;4.15;;;3.55;;
53977;SDS011;39886;47.984;-1.586;2024-01-15T03:43:40;3.85;;;3.45;;
53977;SDS011;39886;47.984;-1.586;2024-01-15T03:46:06;4.45;;;4.00;;
53977;SDS011;39886;47.984;-1.586;2024-01-15T03:48:32;4.82;;;4.03;;
53977;SDS011;39886;47.984;-1.586;2024-01-15T03:50:58;4.80;;;4.30;;
53977;SDS011;39886;47.984;-1.586;2024-01-15T03:53:23;4.47;;;4.00;;
53977;SDS011;39886;47.984;-1.586;2024-01-15T03:55:50;4.28;;;3.88;;
53977;SDS011;39886;47.984;-1.586;2024-01-15T03:58:16;4.88;;;4.30;;
53977;SDS011;39886;47.984;-1.586;2024-01-15T04:00:42;3.97;;;3.58;;
53977;SDS011;39886;47.984;-1.586;2024-01-15T04:03:08;4.50;;;3.90;;
53977;SDS011;39886;47.984;-1.586;2024-01-15T04:05:34;4.50;;;3.90;;
53977;SDS011;39886;47.984;-1.586;2024-01-15T04:08:00;4.53;;;3.92;;
53977;SDS011;39886;47.984;-1.586;2024-01-15T04:10:25;4.80;;;4.00;;
53977;SDS011;39886;47.984;-1.586;2024-01-15T04:12:51;5.20;;;4.25;;
53977;SDS011;39886;47.984;-1.586;2024-01-15T04:15:17;4.32;;;3.80;;
53977;SDS011;39886;47.984;-1.586;2024-01-15T04:17:43;4.70;;;4.00;;
53977;SDS011;39886;47.984;-1.586;2024-01-15T04:20:08;4.38;;;3.90;;
53977;SDS011;39886;47.984;-1.586;2024-01-15T04:22:35;4.82;;;4.20;;
53977;SDS011;39886;47.984;-1.586;2024-01-15T04:25:01;4.30;;;3.63;;
53977;SDS011;39886;47.984;-1.586;2024-01-15T04:27:27;4.47;;;3.90;;
53977;SDS011;39886;47.984;-1.586;2024-01-15T04:29:53;4.38;;;3.88;;
53977;SDS011;39886;47.984;-1.586;2024-01-15T04:32:19;4.00;;;3.60;;
53977;SDS011;39886;47.984;-1.586;2024-01-15T04:34:44;4.38;;;3.65;;
53977;SDS011;39886;47.984;-1.586;2024-01-15T04:37:10;4.82;;;3.90;;
53977;SDS011;39886;47.984;-1.586;2024-01-15T04:39:36;4.25;;;3.80;;
53977;SDS011;39886;47.984;-1.586;2024-01-15T04:42:02;4.43;;;4.00;;
53977;SDS011;39886;47.984;-1.586;2024-01-15T04:44:28;4.35;;;3.95;;
53977;SDS011;39886;47.984;-1.586;2024-01-15T04:46:54;4.63;;;3.85;;
53977;SDS011;39886;47.984;-1.586;2024-01-15T04:49:19;4.70;;;3.90;;
53977;SDS011;39886;47.984;-1.586;2024-01-15T04:51:45;4.07;;;3.60;;
53977;SDS011;39886;47.984;-1.586;2024-01-15T04:54:11;3.95;;;3.60;;
53977;SDS011;39886;47.984;-1.586;2024-01-15T04:56:37;3.75;;;3.45;;
53977;SDS011;39886;47.984;-1.586;2024-01-15T04:59:03;4.05;;;3.65;;
53977;SDS011;39886;47.984;-1.586;2024-01-15T05:01:32;4.07;;;3.63;;
53977;SDS011;39886;47.984;-1.586;2024-01-15T05:03:58;4.28;;;3.60;;
53977;SDS011;39886;47.984;-1.586;2024-01-15T05:06:24;5.47;;;4.15;;
53977;SDS011;39886;47.984;-1.586;2024-01-15T05:08:50;4.22;;;3.83;;
53977;SDS011;39886;47.984;-1.586;2024-01-15T05:11:15;4.30;;;3.65;;
53977;SDS011;39886;47.984;-1.586;2024-01-15T05:13:41;4.00;;;3.58;;
53977;SDS011;39886;47.984;-1.586;2024-01-15T05:16:07;4.32;;;3.75;;
53977;SDS011;39886;47.984;-1.586;2024-01-15T05:18:33;4.22;;;3.83;;
53977;SDS011;39886;47.984;-1.586;2024-01-15T05:20:58;4.20;;;3.60;;
53977;SDS011;39886;47.984;-1.586;2024-01-15T05:23:24;3.85;;;3.45;;
53977;SDS011;39886;47.984;-1.586;2024-01-15T05:25:50;4.28;;;3.72;;
53977;SDS011;39886;47.984;-1.586;2024-01-15T05:28:16;4.45;;;3.78;;
53977;SDS011;39886;47.984;-1.586;2024-01-15T05:30:42;4.07;;;3.53;;
53977;SDS011;39886;47.984;-1.586;2024-01-15T05:33:07;4.50;;;3.70;;
53977;SDS011;39886;47.984;-1.586;2024-01-15T05:35:33;3.65;;;3.35;;
53977;SDS011;39886;47.984;-1.586;2024-01-15T05:37:59;4.00;;;3.53;;
53977;SDS011;39886;47.984;-1.586;2024-01-15T05:40:25;3.92;;;3.53;;
53977;SDS011;39886;47.984;-1.586;2024-01-15T05:42:51;4.22;;;3.83;;
53977;SDS011;39886;47.984;-1.586;2024-01-15T05:45:16;4.10;;;3.50;;
53977;SDS011;39886;47.984;-1.586;2024-01-15T05:47:42;4.28;;;3.78;;
53977;SDS011;39886;47.984;-1.586;2024-01-15T05:50:09;3.88;;;3.47;;
53977;SDS011;39886;47.984;-1.586;2024-01-15T05:52:35;4.13;;;3.72;;
53977;SDS011;39886;47.984;-1.586;2024-01-15T05:55:01;3.78;;;3.47;;
53977;SDS011;39886;47.984;-1.586;2024-01-15T05:57:27;4.03;;;3.50;;
53977;SDS011;39886;47.984;-1.586;2024-01-15T05:59:53;3.92;;;3.53;;
53977;SDS011;39886;47.984;-1.586;2024-01-15T06:02:18;4.00;;;3.60;;
53977;SDS011;39886;47.984;-1.586;2024-01-15T06:04:44;4.22;;;3.83;;
53977;SDS011;39886;47.984;-1.586;2024-01-15T06:07:10;3.72;;;3.42;;
53977;SDS011;39886;47.984;-1.586;2024-01-15T06:09:36;3.92;;;3.47;;
53977;SDS011;39886;47.984;-1.586;2024-01-15T06:12:02;3.60;;;3.30;;
53977;SDS011;39886;47.984;-1.586;2024-01-15T06:14:27;3.95;;;3.55;;
53977;SDS011;39886;47.984;-1.586;2024-01-15T06:16:53;3.55;;;3.25;;
53977;SDS011;39886;47.984;-1.586;2024-01-15T06:19:20;4.35;;;3.80;;
53977;SDS011;39886;47.984;-1.586;2024-01-15T06:21:46;3.80;;;3.40;;
53977;SDS011;39886;47.984;-1.586;2024-01-15T06:24:11;4.28;;;3.47;;
53977;SDS011;39886;47.984;-1.586;2024-01-15T06:26:38;3.75;;;3.40;;
53977;SDS011;39886;47.984;-1.586;2024-01-15T06:29:04;4.40;;;3.63;;
53977;SDS011;39886;47.984;-1.586;2024-01-15T06:31:30;3.80;;;3.35;;
53977;SDS011;39886;47.984;-1.586;2024-01-15T06:33:55;4.15;;;3.65;;
53977;SDS011;39886;47.984;-1.586;2024-01-15T06:36:21;4.05;;;3.30;;
53977;SDS011;39886;47.984;-1.586;2024-01-15T06:38:47;4.05;;;3.65;;
53977;SDS011;39886;47.984;-1.586;2024-01-15T06:41:12;3.50;;;3.20;;
53977;SDS011;39886;47.984;-1.586;2024-01-15T06:43:38;3.85;;;3.45;;
53977;SDS011;39886;47.984;-1.586;2024-01-15T06:46:04;3.67;;;3.10;;
53977;SDS011;39886;47.984;-1.586;2024-01-15T06:48:30;3.50;;;3.20;;
53977;SDS011;39886;47.984;-1.586;2024-01-15T06:50:55;3.58;;;3.20;;
53977;SDS011;39886;47.984;-1.586;2024-01-15T06:53:21;3.92;;;3.53;;
53977;SDS011;39886;47.984;-1.586;2024-01-15T06:55:47;3.85;;;3.47;;
53977;SDS011;39886;47.984;-1.586;2024-01-15T06:58:14;3.53;;;3.22;;
53977;SDS011;39886;47.984;-1.586;2024-01-15T07:00:40;3.90;;;3.50;;
53977;SDS011;39886;47.984;-1.586;2024-01-15T07:03:06;3.45;;;3.08;;
53977;SDS011;39886;47.984;-1.586;2024-01-15T07:05:32;3.40;;;3.10;;
53977;SDS011;39886;47.984;-1.586;2024-01-15T07:07:58;3.58;;;3.28;;
53977;SDS011;39886;47.984;-1.586;2024-01-15T07:10:24;3.80;;;3.40;;
53977;SDS011;39886;47.984;-1.586;2024-01-15T07:12:50;3.97;;;3.30;;
53977;SDS011;39886;47.984;-1.586;2024-01-15T07:15:15;3.45;;;3.13;;
53977;SDS011;39886;47.984;-1.586;2024-01-15T07:17:41;3.55;;;3.25;;
53977;SDS011;39886;47.984;-1.586;2024-01-15T07:20:08;3.80;;;3.38;;
53977;SDS011;39886;47.984;-1.586;2024-01-15T07:22:37;4.10;;;3.47;;
53977;SDS011;39886;47.984;-1.586;2024-01-15T07:25:03;3.55;;;3.10;;
53977;SDS011;39886;47.984;-1.586;2024-01-15T07:27:30;3.38;;;3.08;;
53977;SDS011;39886;47.984;-1.586;2024-01-15T07:29:56;3.30;;;3.00;;
53977;SDS011;39886;47.984;-1.586;2024-01-15T07:32:23;3.47;;;3.15;;
53977;SDS011;39886;47.984;-1.586;2024-01-15T07:34:48;3.65;;;3.15;;
53977;SDS011;39886;47.984;-1.586;2024-01-15T07:37:14;3.10;;;2.80;;
53977;SDS011;39886;47.984;-1.586;2024-01-15T07:39:40;3.60;;;3.30;;
53977;SDS011;39886;47.984;-1.586;2024-01-15T07:42:06;3.97;;;3.40;;
53977;SDS011;39886;47.984;-1.586;2024-01-15T07:44:32;3.60;;;3.30;;
53977;SDS011;39886;47.984;-1.586;2024-01-15T07:46:58;3.28;;;2.95;;
53977;SDS011;39886;47.984;-1.586;2024-01-15T07:49:24;3.30;;;2.97;;
53977;SDS011;39886;47.984;-1.586;2024-01-15T07:51:50;3.28;;;2.97;;
53977;SDS011;39886;47.984;-1.586;2024-01-15T07:54:16;3.20;;;2.90;;
53977;SDS011;39886;47.984;-1.586;2024-01-15T07:56:54;3.42;;;3.10;;
53977;SDS011;39886;47.984;-1.586;2024-01-15T07:59:20;4.60;;;3.53;;
53977;SDS011;39886;47.984;-1.586;2024-01-15T08:01:46;3.58;;;3.28;;
53977;SDS011;39886;47.984;-1.586;2024-01-15T08:04:12;3.20;;;2.90;;
53977;SDS011;39886;47.984;-1.586;2024-01-15T08:06:38;3.72;;;3.30;;
53977;SDS011;39886;47.984;-1.586;2024-01-15T08:09:04;5.03;;;3.03;;
53977;SDS011;39886;47.984;-1.586;2024-01-15T08:11:30;3.50;;;3.15;;
53977;SDS011;39886;47.984;-1.586;2024-01-15T08:13:56;5.15;;;3.22;;
53977;SDS011;39886;47.984;-1.586;2024-01-15T08:16:21;3.88;;;3.13;;
53977;SDS011;39886;47.984;-1.586;2024-01-15T08:18:49;4.00;;;3.13;;
53977;SDS011;39886;47.984;-1.586;2024-01-15T08:21:15;4.25;;;3.30;;
53977;SDS011;39886;47.984;-1.586;2024-01-15T08:23:40;3.72;;;3.30;;
53977;SDS011;39886;47.984;-1.586;2024-01-15T08:26:07;5.85;;;2.95;;
53977;SDS011;39886;47.984;-1.586;2024-01-15T08:28:33;4.70;;;3.17;;
53977;SDS011;39886;47.984;-1.586;2024-01-15T08:30:59;3.15;;;2.78;;
53977;SDS011;39886;47.984;-1.586;2024-01-15T08:33:25;4.15;;;3.35;;
53977;SDS011;39886;47.984;-1.586;2024-01-15T08:35:51;5.10;;;3.13;;
53977;SDS011;39886;47.984;-1.586;2024-01-15T08:38:17;8.93;;;3.20;;
53977;SDS011;39886;47.984;-1.586;2024-01-15T08:40:43;3.42;;;3.00;;
53977;SDS011;39886;47.984;-1.586;2024-01-15T08:43:09;3.63;;;3.17;;
53977;SDS011;39886;47.984;-1.586;2024-01-15T08:45:35;4.00;;;2.97;;
53977;SDS011;39886;47.984;-1.586;2024-01-15T08:48:01;4.78;;;3.10;;
53977;SDS011;39886;47.984;-1.586;2024-01-15T08:50:27;6.07;;;3.15;;
53977;SDS011;39886;47.984;-1.586;2024-01-15T08:52:54;3.78;;;2.83;;
53977;SDS011;39886;47.984;-1.586;2024-01-15T08:55:20;4.47;;;2.80;;
53977;SDS011;39886;47.984;-1.586;2024-01-15T08:57:47;3.22;;;2.92;;
53977;SDS011;39886;47.984;-1.586;2024-01-15T09:00:14;3.25;;;2.50;;
53977;SDS011;39886;47.984;-1.586;2024-01-15T09:02:40;5.00;;;2.92;;
53977;SDS011;39886;47.984;-1.586;2024-01-15T09:05:05;3.92;;;2.67;;
53977;SDS011;39886;47.984;-1.586;2024-01-15T09:07:32;3.17;;;2.88;;
53977;SDS011;39886;47.984;-1.586;2024-01-15T09:09:57;2.97;;;2.60;;
53977;SDS011;39886;47.984;-1.586;2024-01-15T09:12:24;4.32;;;2.80;;
53977;SDS011;39886;47.984;-1.586;2024-01-15T09:14:53;2.97;;;2.67;;
53977;SDS011;39886;47.984;-1.586;2024-01-15T09:17:21;4.25;;;2.75;;
53977;SDS011;39886;47.984;-1.586;2024-01-15T09:19:50;5.25;;;2.92;;
53977;SDS011;39886;47.984;-1.586;2024-01-15T09:22:15;3.95;;;2.85;;
53977;SDS011;39886;47.984;-1.586;2024-01-15T09:24:44;4.10;;;2.90;;
53977;SDS011;39886;47.984;-1.586;2024-01-15T09:27:11;3.95;;;2.75;;
53977;SDS011;39886;47.984;-1.586;2024-01-15T09:29:37;6.03;;;3.33;;
53977;SDS011;39886;47.984;-1.586;2024-01-15T09:32:06;3.67;;;2.83;;
53977;SDS011;39886;47.984;-1.586;2024-01-15T09:34:33;3.45;;;2.63;;
53977;SDS011;39886;47.984;-1.586;2024-01-15T09:36:59;3.40;;;2.60;;
53977;SDS011;39886;47.984;-1.586;2024-01-15T09:39:25;5.45;;;2.72;;
53977;SDS011;39886;47.984;-1.586;2024-01-15T09:41:52;3.50;;;2.40;;
53977;SDS011;39886;47.984;-1.586;2024-01-15T09:44:19;3.80;;;3.03;;
53977;SDS011;39886;47.984;-1.586;2024-01-15T09:46:45;4.78;;;2.47;;
53977;SDS011;39886;47.984;-1.586;2024-01-15T09:49:11;3.25;;;2.75;;
53977;SDS011;39886;47.984;-1.586;2024-01-15T09:51:37;3.35;;;2.70;;
53977;SDS011;39886;47.984;-1.586;2024-01-15T09:54:04;4.35;;;2.78;;
53977;SDS011;39886;47.984;-1.586;2024-01-15T09:56:31;6.65;;;2.92;;
53977;SDS011;39886;47.984;-1.586;2024-01-15T09:58:57;4.82;;;2.90;;
53977;SDS011;39886;47.984;-1.586;2024-01-15T10:01:23;4.80;;;2.78;;
53977;SDS011;39886;47.984;-1.586;2024-01-15T10:03:50;3.65;;;2.60;;
53977;SDS011;39886;47.984;-1.586;2024-01-15T10:06:16;2.78;;;2.50;;
53977;SDS011;39886;47.984;-1.586;2024-01-15T10:08:48;3.55;;;2.78;;
53977;SDS011;39886;47.984;-1.586;2024-01-15T10:11:15;5.32;;;2.70;;
53977;SDS011;39886;47.984;-1.586;2024-01-15T10:13:42;6.60;;;3.15;;
53977;SDS011;39886;47.984;-1.586;2024-01-15T10:16:09;3.95;;;2.67;;
53977;SDS011;39886;47.984;-1.586;2024-01-15T10:18:36;3.47;;;2.72;;
53977;SDS011;39886;47.984;-1.586;2024-01-15T10:21:02;3.30;;;2.72;;
53977;SDS011;39886;47.984;-1.586;2024-01-15T10:23:29;3.70;;;2.90;;
53977;SDS011;39886;47.984;-1.586;2024-01-15T10:25:57;2.75;;;2.47;;
53977;SDS011;39886;47.984;-1.586;2024-01-15T10:28:23;2.60;;;2.40;;
53977;SDS011;39886;47.984;-1.586;2024-01-15T10:30:52;5.57;;;3.22;;
53977;SDS011;39886;47.984;-1.586;2024-01-15T10:33:23;3.35;;;2.88;;
53977;SDS011;39886;47.984;-1.586;2024-01-15T10:35:55;3.10;;;2.80;;
53977;SDS011;39886;47.984;-1.586;2024-01-15T10:38:22;5.45;;;2.80;;
53977;SDS011;39886;47.984;-1.586;2024-01-15T10:40:52;4.40;;;2.80;;
53977;SDS011;39886;47.984;-1.586;2024-01-15T10:43:18;3.70;;;2.65;;
53977;SDS011;39886;47.984;-1.586;2024-01-15T10:45:47;3.67;;;2.72;;
53977;SDS011;39886;47.984;-1.586;2024-01-15T10:48:13;8.38;;;3.03;;
53977;SDS011;39886;47.984;-1.586;2024-01-15T10:50:40;4.65;;;2.67;;
53977;SDS011;39886;47.984;-1.586;2024-01-15T10:53:06;3.55;;;2.88;;
53977;SDS011;39886;47.984;-1.586;2024-01-15T10:55:35;3.70;;;2.40;;
53977;SDS011;39886;47.984;-1.586;2024-01-15T10:58:03;5.82;;;3.00;;
53977;SDS011;39886;47.984;-1.586;2024-01-15T11:00:29;4.10;;;2.72;;
53977;SDS011;39886;47.984;-1.586;2024-01-15T11:02:56;3.10;;;2.50;;
53977;SDS011;39886;47.984;-1.586;2024-01-15T11:05:22;4.70;;;2.58;;
53977;SDS011;39886;47.984;-1.586;2024-01-15T11:07:49;3.58;;;2.70;;
53977;SDS011;39886;47.984;-1.586;2024-01-15T11:10:37;4.15;;;2.70;;
53977;SDS011;39886;47.984;-1.586;2024-01-15T11:13:01;4.28;;;2.75;;
53977;SDS011;39886;47.984;-1.586;2024-01-15T11:15:27;3.55;;;2.78;;
53977;SDS011;39886;47.984;-1.586;2024-01-15T11:17:58;4.20;;;2.65;;
53977;SDS011;39886;47.984;-1.586;2024-01-15T11:20:28;2.65;;;2.20;;
53977;SDS011;39886;47.984;-1.586;2024-01-15T11:22:56;4.72;;;2.75;;
53977;SDS011;39886;47.984;-1.586;2024-01-15T11:25:24;3.05;;;2.55;;
53977;SDS011;39886;47.984;-1.586;2024-01-15T11:27:59;5.05;;;2.35;;
53977;SDS011;39886;47.984;-1.586;2024-01-15T11:30:25;4.15;;;2.60;;
53977;SDS011;39886;47.984;-1.586;2024-01-15T11:32:51;4.63;;;2.90;;
53977;SDS011;39886;47.984;-1.586;2024-01-15T11:35:18;7.20;;;3.08;;
53977;SDS011;39886;47.984;-1.586;2024-01-15T11:38:02;5.35;;;2.58;;
53977;SDS011;39886;47.984;-1.586;2024-01-15T11:43:01;3.45;;;2.50;;
53977;SDS011;39886;47.984;-1.586;2024-01-15T11:45:28;4.05;;;2.40;;
53977;SDS011;39886;47.984;-1.586;2024-01-15T11:48:14;5.75;;;2.47;;
53977;SDS011;39886;47.984;-1.586;2024-01-15T11:50:44;3.47;;;2.63;;
53977;SDS011;39886;47.984;-1.586;2024-01-15T11:53:56;3.30;;;2.45;;
53977;SDS011;39886;47.984;-1.586;2024-01-15T11:55:58;2.63;;;2.17;;
53977;SDS011;39886;47.984;-1.586;2024-01-15T11:58:25;3.08;;;2.78;;
53977;SDS011;39886;47.984;-1.586;2024-01-15T12:00:51;2.33;;;2.00;;
53977;SDS011;39886;47.984;-1.586;2024-01-15T12:03:17;3.03;;;2.45;;
53977;SDS011;39886;47.984;-1.586;2024-01-15T12:05:46;3.03;;;2.58;;
53977;SDS011;39886;47.984;-1.586;2024-01-15T12:08:12;3.10;;;2.35;;
53977;SDS011;39886;47.984;-1.586;2024-01-15T12:10:38;3.60;;;2.30;;
53977;SDS011;39886;47.984;-1.586;2024-01-15T12:15:32;2.80;;;2.42;;
53977;SDS011;39886;47.984;-1.586;2024-01-15T12:17:59;3.10;;;2.33;;
53977;SDS011;39886;47.984;-1.586;2024-01-15T12:20:27;2.70;;;2.17;;
53977;SDS011;39886;47.984;-1.586;2024-01-15T12:22:53;3.05;;;2.22;;
53977;SDS011;39886;47.984;-1.586;2024-01-15T12:25:22;2.95;;;2.30;;
53977;SDS011;39886;47.984;-1.586;2024-01-15T12:27:48;2.75;;;2.30;;
53977;SDS011;39886;47.984;-1.586;2024-01-15T12:30:15;2.60;;;2.17;;
53977;SDS011;39886;47.984;-1.586;2024-01-15T12:32:41;2.30;;;2.10;;
53977;SDS011;39886;47.984;-1.586;2024-01-15T12:35:07;3.40;;;2.50;;
53977;SDS011;39886;47.984;-1.586;2024-01-15T12:37:37;2.78;;;2.28;;
53977;SDS011;39886;47.984;-1.586;2024-01-15T12:40:03;3.42;;;2.28;;
53977;SDS011;39886;47.984;-1.586;2024-01-15T12:42:32;2.72;;;2.40;;
53977;SDS011;39886;47.984;-1.586;2024-01-15T12:44:58;3.65;;;2.60;;
53977;SDS011;39886;47.984;-1.586;2024-01-15T12:47:25;2.55;;;2.20;;
53977;SDS011;39886;47.984;-1.586;2024-01-15T12:49:52;2.95;;;2.45;;
53977;SDS011;39886;47.984;-1.586;2024-01-15T12:52:21;4.57;;;2.40;;
53977;SDS011;39886;47.984;-1.586;2024-01-15T12:54:48;3.38;;;2.33;;
53977;SDS011;39886;47.984;-1.586;2024-01-15T12:57:15;4.00;;;2.22;;
53977;SDS011;39886;47.984;-1.586;2024-01-15T12:59:41;2.35;;;2.15;;
53977;SDS011;39886;47.984;-1.586;2024-01-15T13:02:07;2.60;;;2.20;;
53977;SDS011;39886;47.984;-1.586;2024-01-15T13:04:33;3.13;;;2.42;;
53977;SDS011;39886;47.984;-1.586;2024-01-15T13:06:59;2.47;;;2.15;;
53977;SDS011;39886;47.984;-1.586;2024-01-15T13:09:25;2.40;;;2.00;;
53977;SDS011;39886;47.984;-1.586;2024-01-15T13:11:51;3.30;;;1.92;;
53977;SDS011;39886;47.984;-1.586;2024-01-15T13:14:17;3.05;;;2.13;;
53977;SDS011;39886;47.984;-1.586;2024-01-15T13:16:43;3.80;;;2.05;;
53977;SDS011;39886;47.984;-1.586;2024-01-15T13:19:09;3.90;;;2.15;;
53977;SDS011;39886;47.984;-1.586;2024-01-15T13:21:39;4.68;;;2.20;;
53977;SDS011;39886;47.984;-1.586;2024-01-15T13:24:06;2.53;;;2.10;;
53977;SDS011;39886;47.984;-1.586;2024-01-15T13:26:32;4.18;;;2.25;;
53977;SDS011;39886;47.984;-1.586;2024-01-15T13:28:59;3.67;;;2.47;;
53977;SDS011;39886;47.984;-1.586;2024-01-15T13:31:26;3.13;;;2.30;;
53977;SDS011;39886;47.984;-1.586;2024-01-15T13:33:52;2.70;;;2.15;;
53977;SDS011;39886;47.984;-1.586;2024-01-15T13:36:18;2.20;;;2.00;;
53977;SDS011;39886;47.984;-1.586;2024-01-15T13:38:46;2.30;;;2.10;;
53977;SDS011;39886;47.984;-1.586;2024-01-15T13:41:12;3.67;;;2.40;;
53977;SDS011;39886;47.984;-1.586;2024-01-15T13:43:38;3.78;;;1.90;;
53977;SDS011;39886;47.984;-1.586;2024-01-15T13:46:04;2.80;;;2.10;;
53977;SDS011;39886;47.984;-1.586;2024-01-15T13:48:30;3.65;;;2.20;;
53977;SDS011;39886;47.984;-1.586;2024-01-15T13:50:57;2.42;;;2.08;;
53977;SDS011;39886;47.984;-1.586;2024-01-15T13:53:24;2.67;;;2.00;;
53977;SDS011;39886;47.984;-1.586;2024-01-15T13:55:51;3.53;;;1.90;;
53977;SDS011;39886;47.984;-1.586;2024-01-15T13:58:17;5.78;;;2.00;;
53977;SDS011;39886;47.984;-1.586;2024-01-15T14:00:43;2.17;;;1.98;;
53977;SDS011;39886;47.984;-1.586;2024-01-15T14:03:09;3.88;;;2.20;;
53977;SDS011;39886;47.984;-1.586;2024-01-15T14:05:35;4.20;;;2.10;;
53977;SDS011;39886;47.984;-1.586;2024-01-15T14:08:01;2.28;;;2.00;;
53977;SDS011;39886;47.984;-1.586;2024-01-15T14:10:28;2.92;;;2.38;;
53977;SDS011;39886;47.984;-1.586;2024-01-15T14:12:54;2.13;;;1.80;;
53977;SDS011;39886;47.984;-1.586;2024-01-15T14:15:20;2.63;;;2.00;;
53977;SDS011;39886;47.984;-1.586;2024-01-15T14:17:47;2.20;;;2.00;;
53977;SDS011;39886;47.984;-1.586;2024-01-15T14:20:13;3.88;;;2.17;;
53977;SDS011;39886;47.984;-1.586;2024-01-15T14:22:39;5.00;;;2.00;;
53977;SDS011;39886;47.984;-1.586;2024-01-15T14:25:05;3.13;;;2.10;;
53977;SDS011;39886;47.984;-1.586;2024-01-15T14:27:31;2.03;;;1.85;;
53977;SDS011;39886;47.984;-1.586;2024-01-15T14:29:57;2.17;;;1.83;;
53977;SDS011;39886;47.984;-1.586;2024-01-15T14:32:23;4.07;;;1.88;;
53977;SDS011;39886;47.984;-1.586;2024-01-15T14:34:49;2.55;;;2.00;;